Time;durP1;ratioP1;P1;durP2;ratioP2;P2;SDS_P1;SDS_P2;PMS_P1;PMS_P2;Temp;Humidity;BMP_temperature;BMP_pressure;BME280_temperature;BME280_humidity;BME280_pressure;Samples;Min_cycle;Max_cycle;Signal;HPM_P1;HPM_P2
2024/01/06 00:02:21;;;;;;;9.70;4.00;;;;;;;1.46;70.35;98504.85;105701;1257;73663;-28
2024/01/06 00:04:48;;;;;;;6.00;3.70;;;;;;;2.19;68.51;98497.48;105883;1256;74155;-28
2024/01/06 00:07:15;;;;;;;10.10;6.30;;;;;;;2.41;67.77;98500.55;105880;1256;72350;-28
2024/01/06 00:09:41;;;;;;;9.50;4.60;;;;;;;2.36;67.00;98506.36;105893;1255;61089;-28
2024/01/06 00:12:08;;;;;;;11.00;5.30;;;;;;;2.19;67.23;98515.13;105751;1257;61169;-28
2024/01/06 00:14:36;;;;;;;7.80;4.70;;;;;;;1.99;67.33;98516.23;105644;1259;74111;-28
2024/01/06 00:17:02;;;;;;;8.70;5.10;;;;;;;1.73;67.87;98520.36;105884;1256;74199;-28
2024/01/06 00:19:29;;;;;;;7.80;4.60;;;;;;;1.51;68.65;98514.99;105793;1254;72688;-28
2024/01/06 00:21:56;;;;;;;8.80;4.40;;;;;;;1.31;69.53;98508.38;105685;1254;61047;-28
2024/01/06 00:24:23;;;;;;;7.90;5.20;;;;;;;1.12;70.11;98495.67;105675;1254;61156;-28
2024/01/06 00:26:50;;;;;;;6.80;3.90;;;;;;;0.98;70.79;98493.13;105658;1255;73813;-28
2024/01/06 00:29:17;;;;;;;4.90;3.90;;;;;;;1.57;70.52;98494.70;105867;1256;74033;-28
2024/01/06 00:31:44;;;;;;;6.20;4.30;;;;;;;2.16;68.74;98493.76;105872;1256;72681;-28
2024/01/06 00:34:11;;;;;;;7.30;3.80;;;;;;;2.25;68.28;98499.42;105784;1254;61067;-28
2024/01/06 00:36:38;;;;;;;5.50;3.30;;;;;;;2.11;68.08;98493.68;105828;1257;61103;-28
2024/01/06 00:39:05;;;;;;;6.70;4.10;;;;;;;1.87;68.46;98498.56;105594;1257;72815;-28
2024/01/06 00:41:32;;;;;;;5.70;3.00;;;;;;;1.67;69.15;98503.25;105830;1256;74417;-28
2024/01/06 00:43:59;;;;;;;8.40;5.50;;;;;;;1.41;69.76;98495.54;105739;1253;73165;-28
2024/01/06 00:46:25;;;;;;;7.80;4.30;;;;;;;1.25;70.08;98492.79;105611;1254;61687;-28
2024/01/06 00:48:52;;;;;;;6.90;4.90;;;;;;;1.04;71.05;98484.78;105701;1253;61055;-28
2024/01/06 00:51:19;;;;;;;4.50;3.40;;;;;;;1.08;71.91;98478.56;105836;1254;74358;-28
2024/01/06 00:53:47;;;;;;;6.80;3.90;;;;;;;1.74;70.43;98470.15;105696;1259;74157;-28
2024/01/06 00:56:14;;;;;;;6.90;5.00;;;;;;;2.01;69.28;98460.83;105623;1259;72393;-28
2024/01/06 00:58:40;;;;;;;6.10;3.50;;;;;;;1.95;69.08;98456.19;105793;1257;61695;-28
2024/01/06 01:01:07;;;;;;;7.60;4.20;;;;;;;1.75;69.38;98453.70;105850;1256;61221;-28
2024/01/06 01:03:34;;;;;;;6.30;3.70;;;;;;;1.49;70.09;98448.26;105732;1254;74334;-28
2024/01/06 01:06:02;;;;;;;6.30;4.10;;;;;;;1.30;70.81;98450.75;105691;1256;74316;-28
2024/01/06 01:08:30;;;;;;;4.00;2.90;;;;;;;1.14;71.38;98446.84;105681;1259;73163;-26
2024/01/06 01:10:57;;;;;;;4.30;3.10;;;;;;;0.96;72.03;98444.14;105575;1257;61115;-25
2024/01/06 01:13:24;;;;;;;5.70;3.50;;;;;;;1.42;71.59;98448.08;105797;1257;61111;-28
2024/01/06 01:15:51;;;;;;;3.50;2.50;;;;;;;2.01;69.56;98447.15;105944;1254;74431;-28
2024/01/06 01:18:18;;;;;;;4.40;3.70;;;;;;;2.14;68.42;98455.33;105908;1256;74125;-28
2024/01/06 01:20:45;;;;;;;5.10;3.60;;;;;;;2.11;68.33;98452.60;105871;1257;72336;-28
2024/01/06 01:23:12;;;;;;;9.20;3.40;;;;;;;1.92;68.47;98448.13;105790;1254;61042;-28
2024/01/06 01:25:38;;;;;;;4.80;2.80;;;;;;;1.70;68.67;98444.22;105788;1256;61041;-28
2024/01/06 01:28:05;;;;;;;5.20;3.00;;;;;;;1.47;69.60;98443.58;105629;1255;73758;-28
2024/01/06 01:30:32;;;;;;;4.40;3.50;;;;;;;1.28;70.21;98443.72;105897;1257;74409;-28
2024/01/06 01:32:59;;;;;;;4.90;3.30;;;;;;;1.11;70.91;98439.66;105585;1254;70830;-28
2024/01/06 01:35:27;;;;;;;5.00;3.20;;;;;;;1.38;70.69;98439.75;105662;1258;61126;-28
2024/01/06 01:37:54;;;;;;;5.20;3.50;;;;;;;2.05;69.28;98434.41;105625;1252;61173;-28
2024/01/06 01:40:20;;;;;;;5.00;3.00;;;;;;;2.24;68.18;98429.27;105817;1256;71586;-28
2024/01/06 01:42:47;;;;;;;6.20;3.10;;;;;;;1.98;67.80;98425.89;105929;1256;74427;-28
2024/01/06 01:45:14;;;;;;;5.80;3.50;;;;;;;1.79;68.22;98427.09;105887;1257;73271;-28
2024/01/06 01:47:41;;;;;;;5.70;4.20;;;;;;;1.58;68.77;98429.08;105783;1254;61048;-28
2024/01/06 01:50:08;;;;;;;5.30;3.40;;;;;;;1.39;69.71;98428.76;105847;1253;61119;-28
2024/01/06 01:52:35;;;;;;;3.60;2.90;;;;;;;1.23;70.22;98419.86;105887;1257;73541;-28
2024/01/06 01:55:02;;;;;;;4.90;3.20;;;;;;;1.06;70.91;98415.11;105606;1264;74279;-28
2024/01/06 01:57:29;;;;;;;3.80;2.90;;;;;;;1.25;70.85;98404.02;105683;1257;72844;-28
2024/01/06 01:59:56;;;;;;;5.50;2.80;;;;;;;1.88;68.94;98398.54;105854;1257;61149;-28
2024/01/06 02:02:23;;;;;;;6.20;3.70;;;;;;;2.05;67.97;98390.42;105689;1254;61339;-28
2024/01/06 02:04:50;;;;;;;6.20;3.10;;;;;;;1.97;67.79;98384.86;105838;1266;73877;-28
2024/01/06 02:07:17;;;;;;;5.00;3.20;;;;;;;1.79;68.35;98391.66;105894;1257;74696;-28
2024/01/06 02:09:44;;;;;;;7.10;5.20;;;;;;;1.60;68.77;98386.07;105944;1256;72543;-29
2024/01/06 02:12:11;;;;;;;5.40;3.00;;;;;;;1.39;69.52;98387.21;105760;1257;61920;-28
2024/01/06 02:14:38;;;;;;;5.60;4.40;;;;;;;1.22;70.16;98381.94;105689;1256;61189;-28
2024/01/06 02:17:04;;;;;;;3.60;2.70;;;;;;;1.09;70.62;98379.02;105894;1254;73740;-28
2024/01/06 02:19:31;;;;;;;3.30;2.40;;;;;;;1.39;70.47;98373.86;105757;1257;74295;-28
2024/01/06 02:21:58;;;;;;;3.70;2.50;;;;;;;1.97;68.66;98368.75;105638;1254;72622;-28
2024/01/06 02:24:25;;;;;;;7.00;4.00;;;;;;;2.09;67.87;98363.65;105632;1257;61153;-28
2024/01/06 02:26:52;;;;;;;5.20;3.60;;;;;;;2.05;67.71;98360.27;105599;1258;61101;-28
2024/01/06 02:29:19;;;;;;;4.60;3.00;;;;;;;1.87;68.10;98352.53;105682;1257;73889;-28
2024/01/06 02:31:45;;;;;;;5.70;3.50;;;;;;;1.63;68.60;98343.95;105629;1258;74718;-28
2024/01/06 02:34:13;;;;;;;6.20;3.50;;;;;;;1.45;69.21;98342.89;105792;1255;73059;-28
2024/01/06 02:36:40;;;;;;;5.10;3.60;;;;;;;1.35;69.81;98344.99;105902;1255;61089;-28
2024/01/06 02:39:07;;;;;;;4.50;2.90;;;;;;;1.28;70.48;98345.73;105633;1257;61103;-28
2024/01/06 02:41:34;;;;;;;3.40;2.50;;;;;;;1.85;68.92;98345.96;105750;1254;73916;-28
2024/01/06 02:44:02;;;;;;;6.40;3.80;;;;;;;2.15;67.83;98350.46;105599;1259;74380;-28
2024/01/06 02:46:29;;;;;;;6.60;3.70;;;;;;;2.04;67.70;98345.59;105663;1257;72926;-28
2024/01/06 02:48:56;;;;;;;5.60;3.50;;;;;;;1.89;68.16;98342.52;105663;1255;61054;-28
2024/01/06 02:51:23;;;;;;;4.50;3.30;;;;;;;1.72;68.57;98345.14;105512;1257;61251;-28
2024/01/06 02:53:50;;;;;;;5.80;3.20;;;;;;;1.54;69.26;98347.58;105866;1257;73697;-28
2024/01/06 02:56:17;;;;;;;5.10;3.80;;;;;;;1.42;69.91;98348.91;105902;1257;74967;-28
2024/01/06 02:58:44;;;;;;;4.20;2.20;;;;;;;1.48;70.28;98351.98;105856;1254;72465;-28
2024/01/06 03:01:11;;;;;;;3.80;2.80;;;;;;;2.07;68.69;98347.85;105867;1257;61057;-28
2024/01/06 03:03:38;;;;;;;5.20;4.00;;;;;;;2.19;67.84;98343.86;105657;1263;61259;-27
2024/01/06 03:06:06;;;;;;;6.40;3.60;;;;;;;2.16;67.60;98336.52;105818;1255;73904;-28
2024/01/06 03:08:34;;;;;;;3.80;2.60;;;;;;;1.99;68.05;98329.44;105811;1256;74370;-28
2024/01/06 03:11:03;;;;;;;4.40;3.40;;;;;;;1.78;68.86;98321.92;105782;1257;72396;-28
2024/01/06 03:13:30;;;;;;;5.70;4.30;;;;;;;1.60;69.50;98316.23;105335;1254;61055;-28
2024/01/06 03:15:57;;;;;;;6.20;3.70;;;;;;;1.46;69.93;98315.14;105714;1257;61099;-28
2024/01/06 03:18:24;;;;;;;5.80;3.70;;;;;;;1.44;70.70;98311.33;105873;1256;73811;-28
2024/01/06 03:20:51;;;;;;;5.10;3.70;;;;;;;1.96;69.14;98306.48;105623;1254;74051;-28
2024/01/06 03:23:18;;;;;;;6.20;3.50;;;;;;;2.16;68.36;98303.79;105605;1256;72466;-28
2024/01/06 03:25:45;;;;;;;5.80;4.10;;;;;;;2.08;68.36;98290.57;105812;1255;61070;-28
2024/01/06 03:28:12;;;;;;;5.70;4.10;;;;;;;1.87;69.06;98278.98;105833;1262;61714;-28
2024/01/06 03:30:39;;;;;;;7.10;3.20;;;;;;;1.69;69.10;98272.11;105873;1256;73792;-28
2024/01/06 03:33:06;;;;;;;9.70;4.00;;;;;;;1.57;69.95;98271.41;105907;1256;74412;-27
2024/01/06 03:35:33;;;;;;;4.90;3.80;;;;;;;1.40;70.49;98266.39;105898;1253;72673;-27
2024/01/06 03:38:00;;;;;;;4.70;3.40;;;;;;;1.59;70.74;98272.16;105903;1255;60975;-27
2024/01/06 03:40:26;;;;;;;4.20;3.20;;;;;;;2.02;69.23;98273.95;105877;1254;61589;-28
2024/01/06 03:42:53;;;;;;;7.20;3.10;;;;;;;2.10;68.62;98280.17;105909;1257;73849;-28
2024/01/06 03:45:21;;;;;;;6.10;3.20;;;;;;;2.01;68.64;98283.98;105599;1258;73391;-28
2024/01/06 03:47:47;;;;;;;5.60;3.60;;;;;;;1.83;69.47;98285.02;105708;1257;72670;-28
2024/01/06 03:50:14;;;;;;;3.80;3.00;;;;;;;1.66;70.11;98281.84;105803;1254;61048;-28
2024/01/06 03:52:41;;;;;;;4.40;3.60;;;;;;;1.48;70.42;98269.52;105719;1252;61255;-28
2024/01/06 03:55:08;;;;;;;5.20;3.10;;;;;;;1.45;71.15;98264.38;105699;1256;72706;-28
2024/01/06 03:57:35;;;;;;;3.20;2.70;;;;;;;2.03;69.89;98262.79;105868;1257;74166;-28
2024/01/06 04:00:03;;;;;;;3.60;2.90;;;;;;;2.29;68.42;98261.45;105760;1253;72627;-28
2024/01/06 04:02:30;;;;;;;6.10;4.00;;;;;;;2.26;68.28;98257.83;105610;1254;61226;-28
2024/01/06 04:04:57;;;;;;;5.40;3.40;;;;;;;2.03;68.87;98258.50;105883;1253;61140;-28
2024/01/06 04:07:24;;;;;;;4.60;3.70;;;;;;;1.86;69.29;98260.20;105684;1254;72772;-28
2024/01/06 04:09:51;;;;;;;8.60;4.20;;;;;;;1.71;69.93;98260.90;105914;1256;74788;-28
2024/01/06 04:12:18;;;;;;;7.80;3.80;;;;;;;1.50;70.83;98259.63;105842;1253;72632;-28
2024/01/06 04:14:44;;;;;;;3.30;2.00;;;;;;;1.61;71.15;98274.11;105867;1254;61225;-29
2024/01/06 04:17:11;;;;;;;5.80;3.20;;;;;;;2.30;69.05;98282.60;105870;1264;61099;-28
2024/01/06 04:19:38;;;;;;;5.60;3.60;;;;;;;2.49;67.61;98285.09;105880;1254;74386;-28
2024/01/06 04:22:05;;;;;;;2.90;2.20;;;;;;;2.24;67.84;98284.52;105898;1256;74072;-28
2024/01/06 04:24:36;;;;;;;5.90;3.90;;;;;;;2.06;68.43;98285.38;105868;1254;73082;-28
2024/01/06 04:27:04;;;;;;;5.50;3.60;;;;;;;1.94;69.24;98280.65;105654;1254;61168;-28
2024/01/06 04:29:31;;;;;;;4.30;3.00;;;;;;;1.71;69.81;98278.70;105704;1261;61179;-28
2024/01/06 04:31:58;;;;;;;4.60;2.20;;;;;;;1.60;70.35;98276.38;105844;1254;73913;-28
2024/01/06 04:34:25;;;;;;;4.30;2.80;;;;;;;1.72;70.60;98273.15;105888;1256;74239;-28
2024/01/06 04:36:52;;;;;;;6.30;3.70;;;;;;;2.31;69.04;98270.23;105844;1254;73169;-28
2024/01/06 04:39:19;;;;;;;4.10;3.20;;;;;;;2.45;68.04;98262.00;105699;1255;61147;-28
2024/01/06 04:41:46;;;;;;;5.50;3.50;;;;;;;2.38;68.12;98258.30;105687;1257;61102;-31
2024/01/06 04:44:12;;;;;;;4.60;3.30;;;;;;;2.21;68.85;98262.10;105881;1252;73656;-28
2024/01/06 04:46:39;;;;;;;6.10;4.00;;;;;;;1.98;69.55;98257.42;105939;1256;74679;-28
2024/01/06 04:49:06;;;;;;;5.60;3.10;;;;;;;1.87;70.04;98259.80;105900;1254;72636;-28
2024/01/06 04:51:33;;;;;;;5.00;3.30;;;;;;;1.66;71.01;98256.37;105761;1254;61045;-28
2024/01/06 04:54:00;;;;;;;6.10;4.00;;;;;;;1.94;71.26;98252.66;105570;1257;61169;-28
2024/01/06 04:56:27;;;;;;;5.40;3.30;;;;;;;2.42;69.59;98259.65;105773;1257;73884;-28
2024/01/06 04:58:54;;;;;;;7.00;3.20;;;;;;;2.52;68.95;98263.84;105924;1254;74618;-28
2024/01/06 05:01:21;;;;;;;5.40;3.50;;;;;;;2.38;69.02;98261.75;105963;1255;72644;-28
2024/01/06 05:03:48;;;;;;;5.40;4.00;;;;;;;2.12;69.74;98259.02;105815;1255;61007;-28
2024/01/06 05:06:15;;;;;;;6.90;4.00;;;;;;;1.96;70.47;98257.52;105641;1256;61058;-28
2024/01/06 05:08:44;;;;;;;7.50;5.20;;;;;;;1.80;71.29;98258.11;105877;1254;73841;-28
2024/01/06 05:11:12;;;;;;;5.10;3.20;;;;;;;1.78;71.71;98257.40;105941;1256;74857;-28
2024/01/06 05:13:39;;;;;;;3.10;2.40;;;;;;;2.41;70.22;98261.59;105871;1257;72639;-28
2024/01/06 05:16:07;;;;;;;4.10;2.50;;;;;;;2.70;68.79;98264.83;105670;1254;61188;-28
2024/01/06 05:18:33;;;;;;;6.10;4.00;;;;;;;2.66;68.64;98267.09;105683;1257;61204;-28
2024/01/06 05:21:01;;;;;;;5.70;3.50;;;;;;;2.54;68.84;98272.80;105756;1255;74361;-28
2024/01/06 05:23:29;;;;;;;7.60;4.40;;;;;;;2.32;69.33;98276.86;105730;1259;74247;-29
2024/01/06 05:25:56;;;;;;;6.50;3.60;;;;;;;2.17;69.93;98281.45;105855;1256;73163;-28
2024/01/06 05:28:22;;;;;;;6.80;4.20;;;;;;;1.98;70.91;98282.96;105861;1257;61185;-29
2024/01/06 05:30:49;;;;;;;5.80;3.60;;;;;;;1.83;71.57;98283.82;105752;1256;61109;-28
2024/01/06 05:33:16;;;;;;;6.00;3.60;;;;;;;2.21;71.78;98284.31;105638;1254;73832;-29
2024/01/06 05:35:43;;;;;;;5.10;3.00;;;;;;;2.68;70.17;98289.09;105690;1254;74622;-29
2024/01/06 05:38:11;;;;;;;5.60;4.20;;;;;;;2.78;69.59;98282.11;105522;1254;72508;-29
2024/01/06 05:40:38;;;;;;;4.20;3.10;;;;;;;2.63;69.82;98279.42;105878;1254;61064;-29
2024/01/06 05:43:05;;;;;;;6.40;4.20;;;;;;;2.40;70.42;98273.83;105878;1258;61202;-28
2024/01/06 05:45:32;;;;;;;5.80;3.90;;;;;;;2.25;70.71;98270.94;105751;1254;73706;-28
2024/01/06 05:47:59;;;;;;;7.00;4.00;;;;;;;2.08;71.31;98266.63;105793;1254;74277;-28
2024/01/06 05:50:26;;;;;;;4.80;3.00;;;;;;;1.92;72.22;98269.58;105601;1254;72655;-28
2024/01/06 05:52:56;;;;;;;4.70;2.70;;;;;;;2.48;71.59;98272.81;105713;1254;61064;-28
2024/01/06 05:55:23;;;;;;;5.90;3.50;;;;;;;3.06;69.72;98276.66;105870;1258;61131;-28
2024/01/06 05:57:49;;;;;;;6.90;4.80;;;;;;;3.19;68.91;98289.02;105912;1254;73654;-28
2024/01/06 06:00:17;;;;;;;5.70;3.40;;;;;;;3.07;68.81;98289.77;105924;1256;73066;-28
2024/01/06 06:02:44;;;;;;;5.70;3.80;;;;;;;2.78;69.20;98287.08;105884;1254;72732;-28
2024/01/06 06:05:11;;;;;;;3.70;2.60;;;;;;;2.59;69.69;98288.60;105781;1255;61062;-28
2024/01/06 06:07:38;;;;;;;8.80;4.70;;;;;;;2.39;70.18;98286.86;105647;1256;61189;-28
2024/01/06 06:10:10;;;;;;;7.20;4.80;;;;;;;2.19;70.84;98285.64;105813;1257;73650;-28
2024/01/06 06:12:37;;;;;;;3.40;2.20;;;;;;;2.06;71.56;98280.42;105731;1254;74084;-28
2024/01/06 06:15:05;;;;;;;6.60;3.70;;;;;;;2.60;71.14;98277.55;105876;1253;72782;-28
2024/01/06 06:17:35;;;;;;;4.90;3.00;;;;;;;3.25;69.38;98283.84;105697;1254;61061;-28
2024/01/06 06:20:02;;;;;;;5.10;3.50;;;;;;;3.38;68.37;98284.73;105660;1260;61105;-29
2024/01/06 06:22:32;;;;;;;5.30;3.60;;;;;;;3.31;68.43;98288.09;105728;1254;74242;-28
2024/01/06 06:24:59;;;;;;;6.00;3.40;;;;;;;3.11;68.41;98289.23;105661;1257;74237;-28
2024/01/06 06:27:26;;;;;;;6.20;3.50;;;;;;;2.88;68.80;98288.57;105767;1255;72430;-28
2024/01/06 06:29:54;;;;;;;8.10;4.60;;;;;;;2.66;69.60;98292.64;105873;1254;61081;-27
2024/01/06 06:32:21;;;;;;;7.90;4.30;;;;;;;2.48;69.87;98292.65;105658;1252;61096;-28
2024/01/06 06:34:48;;;;;;;9.70;4.50;;;;;;;2.33;70.36;98294.05;105676;1254;73607;-28
2024/01/06 06:37:15;;;;;;;5.90;3.00;;;;;;;2.19;71.23;98290.96;105775;1258;74129;-28
2024/01/06 06:39:44;;;;;;;5.80;3.60;;;;;;;2.60;70.98;98293.13;105690;1254;72649;-28
2024/01/06 06:42:12;;;;;;;3.50;2.60;;;;;;;3.24;69.02;98294.02;105785;1254;61076;-28
2024/01/06 06:44:39;;;;;;;6.60;3.70;;;;;;;3.38;68.24;98292.48;105654;1256;61137;-28
2024/01/06 06:47:06;;;;;;;4.80;3.10;;;;;;;3.28;67.96;98285.36;105563;1254;74502;-28
2024/01/06 06:49:33;;;;;;;7.20;4.30;;;;;;;3.10;68.50;98282.05;105509;1254;74306;-27
2024/01/06 06:52:00;;;;;;;7.30;4.70;;;;;;;2.86;68.90;98272.20;105838;1257;72669;-28
2024/01/06 06:54:27;;;;;;;7.90;4.70;;;;;;;2.68;69.43;98274.53;105763;1254;61058;-28
2024/01/06 06:56:53;;;;;;;8.30;5.00;;;;;;;2.55;69.92;98277.73;105776;1257;61174;-28
2024/01/06 06:59:20;;;;;;;10.20;4.90;;;;;;;2.42;70.28;98269.23;105833;1254;72513;-28
2024/01/06 07:01:47;;;;;;;6.50;3.50;;;;;;;2.26;71.04;98262.61;105880;1254;74781;-28
2024/01/06 07:04:14;;;;;;;6.30;3.90;;;;;;;2.78;70.79;98269.23;105888;1254;72568;-28
2024/01/06 07:06:41;;;;;;;6.80;3.90;;;;;;;3.49;69.10;98278.41;105929;1257;60984;-28
2024/01/06 07:09:08;;;;;;;8.60;4.50;;;;;;;3.63;67.75;98275.15;105754;1256;61170;-28
2024/01/06 07:11:35;;;;;;;7.50;4.70;;;;;;;3.53;67.59;98272.63;105910;1254;74206;-28
2024/01/06 07:14:02;;;;;;;7.30;4.50;;;;;;;3.32;67.89;98264.69;105719;1254;74334;-28
2024/01/06 07:16:29;;;;;;;6.70;4.90;;;;;;;3.13;68.39;98267.95;105897;1257;72596;-28
2024/01/06 07:18:56;;;;;;;9.80;4.90;;;;;;;2.93;69.03;98261.48;105917;1256;61497;-28
2024/01/06 07:21:23;;;;;;;6.30;4.30;;;;;;;2.75;69.42;98266.86;105615;1257;61238;-27
2024/01/06 07:23:50;;;;;;;6.90;4.70;;;;;;;2.57;70.13;98269.38;105914;1256;73815;-27
2024/01/06 07:26:17;;;;;;;8.30;5.30;;;;;;;2.45;70.62;98269.92;105815;1254;74868;-27
2024/01/06 07:28:44;;;;;;;8.20;3.90;;;;;;;2.34;71.42;98272.80;105829;1254;72697;-28
2024/01/06 07:31:11;;;;;;;10.50;5.40;;;;;;;2.99;70.61;98274.19;105860;1254;61079;-28
2024/01/06 07:33:39;;;;;;;9.10;5.50;;;;;;;3.51;69.07;98275.19;105806;1255;61141;-28
2024/01/06 07:36:07;;;;;;;9.00;5.00;;;;;;;3.59;68.15;98282.89;105788;1254;74098;-27
2024/01/06 07:38:33;;;;;;;7.50;4.90;;;;;;;3.46;68.29;98290.75;105839;1254;74397;-28
2024/01/06 07:41:00;;;;;;;8.70;5.50;;;;;;;3.29;68.51;98292.70;105620;1254;72502;-28
2024/01/06 07:43:27;;;;;;;7.70;5.20;;;;;;;3.13;68.98;98271.73;105853;1254;61118;-28
2024/01/06 07:45:54;;;;;;;7.80;5.40;;;;;;;2.94;69.50;98269.30;105669;1257;61103;-27
2024/01/06 07:48:21;;;;;;;8.90;5.50;;;;;;;2.77;70.06;98270.37;105782;1254;73895;-28
2024/01/06 07:50:49;;;;;;;8.10;4.90;;;;;;;2.65;70.39;98277.27;105665;1254;74334;-28
2024/01/06 07:53:17;;;;;;;6.30;4.20;;;;;;;2.51;70.87;98277.27;105675;1258;72521;-28
2024/01/06 07:55:44;;;;;;;6.60;3.90;;;;;;;3.05;70.79;98281.68;105826;1254;61846;-27
2024/01/06 07:58:11;;;;;;;4.50;2.90;;;;;;;3.69;69.16;98280.34;105642;1256;61131;-28
2024/01/06 08:00:38;;;;;;;7.50;4.60;;;;;;;3.84;68.03;98278.88;105766;1254;73900;-28
2024/01/06 08:03:06;;;;;;;7.50;4.00;;;;;;;3.70;68.15;98281.48;105827;1254;74335;-27
2024/01/06 08:05:33;;;;;;;7.50;4.20;;;;;;;3.51;68.52;98279.30;105925;1253;72554;-27
2024/01/06 08:07:59;;;;;;;8.40;4.10;;;;;;;3.29;69.23;98279.86;105936;1252;61126;-28
2024/01/06 08:10:26;;;;;;;6.30;4.40;;;;;;;3.12;69.69;98280.55;105754;1257;61061;-28
2024/01/06 08:12:54;;;;;;;7.20;4.00;;;;;;;2.98;70.32;98271.33;105902;1253;73698;-28
2024/01/06 08:15:21;;;;;;;5.90;4.50;;;;;;;2.84;70.62;98267.05;105720;1254;74438;-27
2024/01/06 08:17:48;;;;;;;5.10;3.10;;;;;;;2.73;71.18;98263.92;105868;1254;72590;-27
2024/01/06 08:20:15;;;;;;;4.70;3.50;;;;;;;3.32;70.69;98266.75;105868;1254;61000;-28
2024/01/06 08:22:42;;;;;;;6.40;4.20;;;;;;;3.92;68.65;98266.52;105566;1256;61191;-28
2024/01/06 08:25:09;;;;;;;6.20;4.20;;;;;;;4.03;67.85;98257.89;105966;1256;72530;-28
2024/01/06 08:27:36;;;;;;;8.00;4.10;;;;;;;3.93;67.78;98260.27;105877;1254;74841;-28
2024/01/06 08:30:03;;;;;;;7.00;4.50;;;;;;;3.73;68.01;98259.31;105887;1256;72681;-27
2024/01/06 08:32:31;;;;;;;6.90;4.10;;;;;;;3.47;68.75;98270.09;105726;1254;61055;-27
2024/01/06 08:34:58;;;;;;;7.60;4.40;;;;;;;3.22;69.60;98269.66;105968;1257;61062;-28
2024/01/06 08:37:25;;;;;;;6.80;4.30;;;;;;;3.03;70.20;98272.55;105626;1256;73934;-28
2024/01/06 08:39:52;;;;;;;8.40;4.80;;;;;;;2.89;70.46;98268.24;105792;1254;74138;-28
2024/01/06 08:42:19;;;;;;;7.30;3.80;;;;;;;2.80;71.20;98267.77;105769;1254;72719;-28
2024/01/06 08:44:46;;;;;;;6.40;4.10;;;;;;;3.44;70.31;98274.55;105630;1254;61058;-27
2024/01/06 08:47:12;;;;;;;9.00;4.10;;;;;;;3.82;68.87;98277.08;105622;1256;61093;-28
2024/01/06 08:49:39;;;;;;;7.90;4.40;;;;;;;3.83;68.38;98279.13;105841;1254;73744;-28
2024/01/06 08:52:06;;;;;;;6.30;4.10;;;;;;;3.73;68.56;98278.40;105754;1257;74181;-28
2024/01/06 08:54:33;;;;;;;8.80;5.00;;;;;;;3.59;68.65;98279.48;105833;1254;73151;-28
2024/01/06 08:57:00;;;;;;;7.70;4.30;;;;;;;3.44;69.51;98277.83;105803;1253;61080;-28
2024/01/06 08:59:27;;;;;;;5.70;3.50;;;;;;;3.27;70.03;98279.77;105791;1252;61142;-27
2024/01/06 09:01:54;;;;;;;8.60;5.10;;;;;;;3.11;69.87;98283.17;105859;1254;74367;-27
2024/01/06 09:04:21;;;;;;;6.80;4.10;;;;;;;3.00;70.57;98281.66;105939;1254;74403;-28
2024/01/06 09:06:48;;;;;;;6.00;3.30;;;;;;;3.31;70.86;98285.35;105618;1253;73122;-28
2024/01/06 09:09:15;;;;;;;5.30;3.80;;;;;;;3.92;69.07;98289.48;105738;1256;61073;-28
2024/01/06 09:11:44;;;;;;;7.40;4.10;;;;;;;4.13;68.50;98288.83;105803;1257;61096;-28
2024/01/06 09:14:10;;;;;;;8.90;4.60;;;;;;;3.93;68.41;98292.50;105702;1254;73639;-27
2024/01/06 09:16:37;;;;;;;8.80;5.10;;;;;;;3.70;69.24;98291.77;105800;1254;74296;-27
2024/01/06 09:19:04;;;;;;;9.20;5.30;;;;;;;3.60;69.74;98285.73;105850;1254;72637;-28
2024/01/06 09:21:31;;;;;;;7.60;4.10;;;;;;;3.45;70.11;98281.77;105881;1253;61075;-28
2024/01/06 09:24:00;;;;;;;8.90;5.40;;;;;;;3.26;70.99;98284.67;105712;1254;61157;-28
2024/01/06 09:26:27;;;;;;;8.20;5.00;;;;;;;3.20;71.26;98285.02;105905;1254;73772;-27
2024/01/06 09:28:54;;;;;;;5.60;2.80;;;;;;;3.07;71.81;98286.89;105726;1256;74344;-28
2024/01/06 09:31:20;;;;;;;6.70;4.40;;;;;;;3.53;71.27;98286.21;105805;1254;72547;-28
2024/01/06 09:33:49;;;;;;;7.10;4.50;;;;;;;4.04;69.98;98278.77;105819;1252;61041;-28
2024/01/06 09:36:16;;;;;;;10.60;4.80;;;;;;;4.16;69.63;98283.45;105707;1259;61162;-28
2024/01/06 09:38:43;;;;;;;11.70;5.80;;;;;;;4.10;69.70;98281.80;105869;1254;73920;-28
2024/01/06 09:41:10;;;;;;;9.60;5.40;;;;;;;3.95;70.01;98281.08;105751;1254;73337;-28
2024/01/06 09:43:38;;;;;;;10.00;5.40;;;;;;;3.78;70.18;98273.23;105879;1253;72726;-28
2024/01/06 09:46:17;;;;;;;10.10;5.50;;;;;;;3.65;70.65;98275.80;105941;1254;61017;-28
2024/01/06 09:48:43;;;;;;;7.90;5.40;;;;;;;3.42;71.24;98279.49;105618;1254;61074;-28
2024/01/06 09:51:11;;;;;;;8.40;5.10;;;;;;;3.32;71.84;98275.20;105339;1254;74183;-28
2024/01/06 09:53:43;;;;;;;8.80;5.20;;;;;;;3.91;70.88;98279.77;105910;1257;74341;-28
2024/01/06 09:56:09;;;;;;;8.70;5.10;;;;;;;4.63;69.17;98285.13;105605;1254;72544;-28
2024/01/06 09:58:37;;;;;;;9.30;5.70;;;;;;;4.86;68.15;98276.84;105713;1254;61090;-28
2024/01/06 10:02:55;;;;;;;10.10;5.40;;;;;;;4.43;68.11;98273.05;102679;1292;600598;-28
2024/01/06 10:05:23;;;;;;;10.40;5.80;;;;;;;4.15;68.12;98271.17;104845;1266;61276;-27
2024/01/06 10:15:31;;;;;;;6.80;4.60;;;;;;;3.72;69.90;98266.42;102773;1289;599088;-28
2024/01/06 10:17:59;;;;;;;6.70;4.10;;;;;;;4.14;69.96;98253.67;105008;1267;61174;-28
2024/01/06 10:20:26;;;;;;;7.60;4.50;;;;;;;4.91;67.46;98252.91;104799;1270;61068;-28
2024/01/06 10:22:54;;;;;;;6.80;4.70;;;;;;;5.11;65.89;98251.49;104792;1267;71305;-27
2024/01/06 10:25:23;;;;;;;7.60;4.90;;;;;;;5.14;66.11;98254.20;104828;1272;72363;-27
2024/01/06 10:27:52;;;;;;;8.50;5.00;;;;;;;5.04;66.16;98256.27;104655;1270;72651;-28
2024/01/06 10:30:20;;;;;;;9.20;5.10;;;;;;;4.95;66.42;98256.44;104804;1269;203726;-28
2024/01/06 10:32:49;;;;;;;9.90;5.80;;;;;;;4.86;66.89;98252.02;105110;1267;61067;-28
2024/01/06 10:35:17;;;;;;;8.30;5.30;;;;;;;4.77;67.09;98254.78;105151;1269;72188;-26
2024/01/06 10:37:45;;;;;;;7.50;5.10;;;;;;;4.67;67.05;98248.91;105244;1269;73209;-27
2024/01/06 10:40:17;;;;;;;9.90;5.60;;;;;;;4.57;67.09;98254.93;105223;1264;71539;-27
2024/01/06 10:42:45;;;;;;;9.30;5.40;;;;;;;4.46;67.42;98252.77;105187;1264;61234;-27
2024/01/06 10:45:13;;;;;;;10.60;4.60;;;;;;;4.32;68.49;98258.02;105216;1266;61186;-27
2024/01/06 10:55:08;;;;;;;11.50;5.30;;;;;;;5.35;65.04;98264.23;102742;1294;600305;-26
2024/01/06 10:57:37;;;;;;;11.10;5.90;;;;;;;5.15;65.83;98271.69;104891;1271;61190;-27
2024/01/06 11:00:06;;;;;;;9.20;5.60;;;;;;;5.01;66.04;98275.27;104883;1266;61149;-25
2024/01/06 11:02:33;;;;;;;9.50;5.60;;;;;;;4.91;66.01;98268.20;104826;1267;74334;-27
2024/01/06 11:05:01;;;;;;;10.50;6.30;;;;;;;4.83;66.20;98268.25;104797;1266;74379;-27
2024/01/06 11:07:29;;;;;;;9.90;6.10;;;;;;;4.80;66.36;98261.95;104838;1266;71413;-28
2024/01/06 11:17:58;;;;;;;8.50;4.40;;;;;;;4.71;67.44;98257.92;102749;1292;600093;-25
2024/01/06 11:20:30;;;;;;;9.90;5.30;;;;;;;5.43;65.54;98259.89;104889;1266;61165;-26
2024/01/06 11:23:17;;;;;;;9.00;4.70;;;;;;;6.12;64.74;98257.42;104872;1266;61069;-25
2024/01/06 11:25:45;;;;;;;9.30;4.50;;;;;;;6.26;62.98;98258.95;104852;1269;72183;-27
2024/01/06 11:28:12;;;;;;;7.40;5.40;;;;;;;6.12;62.57;98261.73;104802;1271;74333;-27
2024/01/06 11:38:20;;;;;;;63.40;30.90;;;;;;;5.25;64.39;98246.73;102751;1290;599395;-25
2024/01/06 11:40:48;;;;;;;44.50;20.70;;;;;;;5.14;65.50;98256.27;105029;1269;61206;-25
2024/01/06 11:43:17;;;;;;;66.20;26.70;;;;;;;5.04;66.01;98260.63;104932;1266;61231;-25
2024/01/06 11:45:44;;;;;;;73.30;28.40;;;;;;;4.89;66.60;98259.21;104901;1266;72216;-27
2024/01/06 11:54:32;;;;;;;146.10;63.20;;;;;;;4.42;68.28;98236.52;102789;1292;600140;-27
